Holland, Arkansas
Current Conditions -  °F | °C
As of 9:58 AM on Friday 31 Oct 2014 (Local Time) from KLRF Reporting Station
Clear Clear  
Wind Chill: 57°   Ceiling: Unl
Heat Index: 57°   Visibility: 10mi
Dew Point: 42°   Wind: 14mph
Humidity: 57%   Direction: 350°N
Pressure: 30.19"   Gusts: 21mph
Location:  35.0719°N, 92.1713°W
Report Text: KLRF 311458Z AUTO 35012G18KT 10SM CLR 14/06 A3019 RMK AO2 SLP226 T01390055 51025
Loading
Personal Weather Stations






























Interactive Weather Map
Tropical Storm Tracking
New forecast layout! Learn more

10-Day Weather Forecast

Advertisements
Track Severe Weather on mobile